Porter Corners, New York
Current Conditions -  °F | °C
As of 5:53 PM on Tuesday 27 Jan 2015 (Local Time) from KGFL Reporting Station
Overcast Overcast  
Wind Chill: -19°   Ceiling: 7000
Heat Index: -11°   Visibility: 10mi
Dew Point: -18°   Wind: 13mph
Humidity: 56%   Direction: 30°NNE
Pressure: 29.85"   Gusts: 22mph
Location:  43.15°N, 73.89°W
Report Text: KGFL 272253Z AUTO 03011G19KT 10SM OVC070 M11/M18 A2985 RMK AO2 PK WND 01028/2206 SLP121 T11061178
Loading
Personal Weather Stations






























Interactive Weather Map New forecast layout! Learn more

10-Day Weather Forecast

Advertisements
Track Severe Weather on mobile